createdAt,value
2023-03-04T00:04:31.533Z,8.23
2023-03-04T00:09:34.307Z,6.73
2023-03-04T00:14:37.092Z,10.70
2023-03-04T00:19:39.900Z,10.60
2023-03-04T00:24:42.613Z,9.40
2023-03-04T00:29:45.350Z,10.03
2023-03-04T05:31:26.174Z,9.43
2023-03-04T05:36:29.035Z,10.90
2023-03-04T05:41:31.869Z,10.13
2023-03-04T05:46:34.702Z,10.93
2023-03-04T05:51:37.491Z,9.40
2023-03-04T05:56:40.306Z,8.07
2023-03-04T06:01:43.036Z,7.73
2023-03-04T06:06:48.846Z,10.63
2023-03-04T06:11:51.684Z,8.57
2023-03-04T06:16:54.549Z,7.40
2023-03-04T06:21:57.334Z,9.10
2023-03-04T06:27:00.130Z,8.37
2023-03-04T06:32:02.893Z,8.23
2023-03-04T06:37:05.704Z,6.87
2023-03-04T06:42:08.537Z,7.60
2023-03-04T06:47:11.256Z,7.77
2023-03-04T06:52:14.046Z,6.50
2023-03-04T06:57:16.796Z,7.33
2023-03-04T07:02:19.583Z,6.30
2023-03-04T07:07:22.704Z,6.67
2023-03-04T07:12:25.475Z,8.50
2023-03-04T07:17:28.300Z,7.50
2023-03-04T07:22:31.095Z,7.40
2023-03-04T07:27:33.922Z,7.60
2023-03-04T07:32:36.860Z,6.60
2023-03-04T07:37:40.608Z,6.33
2023-03-04T07:42:44.332Z,7.67
2023-03-04T07:47:47.307Z,6.07
2023-03-04T07:52:53.468Z,6.80
2023-03-04T07:57:56.340Z,6.53
2023-03-04T08:02:59.114Z,6.13
2023-03-04T08:08:02.813Z,6.40
2023-03-04T08:13:06.447Z,6.80
2023-03-04T08:18:09.350Z,3.97
2023-03-04T08:23:12.172Z,6.23
2023-03-04T08:28:15.451Z,6.47
2023-03-04T08:33:18.178Z,6.80
2023-03-04T08:38:21.061Z,7.03
2023-03-04T08:43:24.868Z,5.53
2023-03-04T08:48:27.973Z,4.97
2023-03-04T08:53:30.735Z,7.97
2023-03-04T08:58:33.678Z,6.90
2023-03-04T09:03:36.856Z,7.23
2023-03-04T09:08:39.794Z,7.20
2023-03-04T09:13:42.569Z,7.70
2023-03-04T09:18:45.408Z,6.43
2023-03-04T09:23:48.177Z,8.20
2023-03-04T09:28:59.088Z,6.67
2023-03-04T09:34:01.885Z,6.87
2023-03-04T09:39:06.692Z,7.53
2023-03-04T09:44:25.873Z,6.63
2023-03-04T09:49:29.750Z,9.17
2023-03-04T09:54:37.404Z,8.37
2023-03-04T10:00:07.780Z,8.80
2023-03-04T10:05:18.852Z,7.60
2023-03-04T10:10:26.583Z,7.83
2023-03-04T10:15:36.984Z,8.77
2023-03-04T10:20:55.036Z,7.43
2023-03-04T10:26:00.190Z,7.53
2023-03-04T10:31:08.922Z,7.27
2023-03-04T10:36:29.843Z,6.50
2023-03-04T10:41:32.862Z,6.83
2023-03-04T10:46:40.389Z,5.93
2023-03-04T10:52:13.191Z,6.67
2023-03-04T10:57:18.031Z,7.33
2023-03-04T11:02:35.076Z,7.10
2023-03-04T11:07:54.519Z,6.87
2023-03-04T11:13:17.446Z,11.27
2023-03-04T11:18:47.256Z,6.83
2023-03-04T11:24:04.910Z,8.30
2023-03-04T11:29:15.083Z,8.60
2023-03-04T11:34:40.890Z,9.17
2023-03-04T11:40:11.902Z,9.90
2023-03-04T11:45:28.498Z,10.17
2023-03-04T11:50:51.819Z,7.73
2023-03-04T11:56:13.034Z,9.63
2023-03-04T12:01:21.717Z,9.37
2023-03-04T12:06:49.366Z,8.60
2023-03-04T12:12:12.232Z,8.53
2023-03-04T12:17:44.554Z,8.20
2023-03-04T12:23:24.588Z,10.80
2023-03-04T12:28:52.219Z,9.50
2023-03-04T12:34:30.861Z,11.73
2023-03-04T12:39:49.706Z,9.03
2023-03-04T12:45:18.225Z,7.00
2023-03-04T12:50:39.986Z,9.67
2023-03-04T12:55:45.899Z,7.70
2023-03-04T13:01:00.435Z,9.07
2023-03-04T13:06:26.566Z,8.77
2023-03-04T13:11:29.876Z,7.00
2023-03-04T13:16:44.887Z,10.33
2023-03-04T13:21:49.303Z,8.70
2023-03-04T13:26:52.325Z,7.37
2023-03-04T13:32:11.998Z,6.73
2023-03-04T13:37:33.665Z,8.23
2023-03-04T13:42:44.156Z,6.47
2023-03-04T13:47:47.717Z,7.03
2023-03-04T13:52:51.914Z,7.83
2023-03-04T13:57:54.818Z,7.10
2023-03-04T14:02:57.584Z,7.23
2023-03-04T14:08:19.127Z,6.90
2023-03-04T14:13:22.301Z,6.83
2023-03-04T14:18:25.168Z,5.13
2023-03-04T14:23:33.560Z,5.00
2023-03-04T14:28:49.656Z,5.17
2023-03-04T14:34:01.902Z,3.60
2023-03-04T14:39:06.824Z,4.43
2023-03-04T14:44:19.645Z,4.63
2023-03-04T14:49:22.554Z,4.63
2023-03-04T14:54:29.944Z,4.23
2023-03-04T14:59:36.691Z,3.77
2023-03-04T15:04:41.195Z,4.67
2023-03-04T15:09:51.256Z,6.00
2023-03-04T15:14:56.853Z,5.70
2023-03-04T15:20:25.800Z,5.87
2023-03-04T15:25:28.820Z,6.90
2023-03-04T15:30:34.313Z,7.90
2023-03-04T15:35:37.345Z,6.87
2023-03-04T15:40:44.415Z,7.07
2023-03-04T15:45:48.460Z,7.93
2023-03-04T15:51:01.895Z,5.87
2023-03-04T15:56:34.608Z,7.07
2023-03-04T16:01:37.497Z,5.30
2023-03-04T16:06:40.317Z,6.27
2023-03-04T16:11:46.936Z,7.93
2023-03-04T16:16:50.486Z,6.67
2023-03-04T16:21:53.269Z,7.27
2023-03-04T16:26:56.014Z,7.73
2023-03-04T16:31:58.776Z,6.73
2023-03-04T16:37:07.580Z,8.30
2023-03-04T16:42:14.921Z,9.53
2023-03-04T16:47:17.800Z,8.57
2023-03-04T16:52:31.958Z,7.50
2023-03-04T16:57:34.696Z,7.63
2023-03-04T17:02:37.527Z,7.27
2023-03-04T17:07:40.367Z,8.87
2023-03-04T17:12:43.729Z,7.50
2023-03-04T17:17:46.600Z,8.27
2023-03-04T17:22:49.555Z,7.33
2023-03-04T17:27:52.556Z,7.70
2023-03-04T17:32:55.414Z,8.40
2023-03-04T17:37:58.153Z,9.20
2023-03-04T17:43:07.961Z,8.67
2023-03-04T17:48:15.083Z,9.13
2023-03-04T17:53:18.561Z,7.00
2023-03-04T17:58:21.578Z,8.70
2023-03-04T18:03:24.381Z,7.73
2023-03-04T18:08:27.226Z,8.47
2023-03-04T18:13:30.218Z,7.53
2023-03-04T18:18:32.990Z,9.60
2023-03-04T18:23:35.898Z,6.87
2023-03-04T18:28:38.829Z,7.60
2023-03-04T18:33:41.651Z,8.47
2023-03-04T18:38:44.438Z,7.10
2023-03-04T18:43:47.193Z,6.23
2023-03-04T18:48:52.708Z,8.37
2023-03-04T18:53:55.513Z,6.07
2023-03-04T18:58:59.341Z,8.23
2023-03-04T19:04:04.782Z,7.57
2023-03-04T19:09:07.905Z,7.73
2023-03-04T19:14:11.715Z,8.17
2023-03-04T19:19:15.612Z,9.00
2023-03-04T19:24:18.461Z,7.40
2023-03-04T19:29:21.339Z,8.10
2023-03-04T19:34:24.081Z,8.60
2023-03-04T19:39:26.832Z,7.40
2023-03-04T19:44:29.613Z,7.13
2023-03-04T19:49:33.007Z,7.60
2023-03-04T19:54:35.990Z,8.60
2023-03-04T19:59:38.718Z,7.40
2023-03-04T20:04:42.577Z,7.33
2023-03-04T20:09:45.406Z,7.77
2023-03-04T20:14:48.191Z,6.07
2023-03-04T20:19:51.105Z,7.90
2023-03-04T20:24:54.899Z,5.70
2023-03-04T20:29:57.667Z,7.03
2023-03-04T20:35:00.397Z,6.40
2023-03-04T20:40:03.306Z,5.50
2023-03-04T20:45:07.001Z,5.07
2023-03-04T20:50:10.385Z,4.80
2023-03-04T20:55:13.162Z,4.50
2023-03-04T21:00:16.303Z,3.67
2023-03-04T21:05:19.098Z,5.27
2023-03-04T21:10:23.157Z,2.40
2023-03-04T21:15:25.933Z,1.53
2023-03-04T21:20:28.716Z,1.90
2023-03-04T21:25:31.458Z,1.57
2023-03-04T21:30:34.258Z,1.77
2023-03-04T21:35:37.116Z,1.60
2023-03-04T21:40:40.031Z,2.53
2023-03-04T21:45:42.803Z,1.90
2023-03-04T21:50:45.597Z,1.50
2023-03-04T21:55:49.832Z,1.77
2023-03-04T22:00:52.935Z,2.57
2023-03-04T22:05:59.201Z,1.67
2023-03-04T22:11:11.230Z,2.17
2023-03-04T22:16:14.145Z,2.73
2023-03-04T22:21:18.515Z,2.83
2023-03-04T22:26:31.672Z,2.87
2023-03-04T22:31:36.825Z,3.47
2023-03-04T22:36:42.270Z,2.83
2023-03-04T22:41:45.088Z,3.37
2023-03-04T22:46:47.917Z,2.27
2023-03-04T22:51:50.688Z,2.87
2023-03-04T22:56:53.404Z,3.30
2023-03-04T23:01:57.155Z,2.47
2023-03-04T23:07:00.043Z,2.33
2023-03-04T23:12:02.881Z,2.70
2023-03-04T23:17:05.682Z,2.33
2023-03-04T23:22:08.577Z,3.33
2023-03-04T23:27:11.413Z,3.70
2023-03-04T23:32:14.275Z,2.27
2023-03-04T23:37:17.016Z,3.73
2023-03-04T23:42:19.765Z,3.63
2023-03-04T23:47:22.637Z,2.93
2023-03-04T23:52:25.444Z,2.47
2023-03-04T23:57:28.249Z,2.97
